Adrian, Oregon
Current Conditions -  °F | °C
As of 1:53 AM on Sunday 26 Oct 2014 (Local Time) from KONO Reporting Station
Clear Clear  
Wind Chill: 55°   Ceiling: Unl
Heat Index: 55°   Visibility: 10mi
Dew Point: 40°   Wind: 9mph
Humidity: 57%   Direction: 270°W
Pressure: 29.92"   Gusts: NA
Location:  43.74°N, 117.07°W
Report Text: KONO 260753Z AUTO 27008KT 10SM CLR 13/04 A2992 RMK AO2 SLP134 T01280044
Loading
Personal Weather Stations






























Interactive Weather Map New forecast layout! Learn more

10-Day Weather Forecast

Advertisements
Track Severe Weather on mobile